Meteo Giornale » Osservazioni meteo Turchia » Merzifon
ore: 20:50 - Osservazioni Meteo Merzifon
Lat. 40° 51' N Lon. 35° 35' E Alt. 545 metri s.l.m.
20 °C
Sereno
Temp. 24 Ore
13 °C
28 °C
Nord/Nord-Est
25.9 Km/h
Dew point 17 °C
Umidità 82 %
Visibilità 10 Km
Il sole sorge alle ore 06:04
Il sole tramonta alle ore 19:10
| Data e Ora | Cielo e Fenomeni | T °C | DP °C | Um. % | Pres. hPa | Vis. km | Vento km/h | |
|---|---|---|---|---|---|---|---|---|
| Oggi h: 20:50 | Sereno | 20 | 17 | 82 | 1017 | 10 | N/NE 25.9 | |
| Oggi h: 19:50 | Sereno | 21 | 16 | 73 | 1016 | 10 | N/NE 16.7 | |
| Oggi h: 18:50 | Sereno | 24 | 16 | 60 | 1015 | 10 | NE 25.9 | |
| Oggi h: 17:50 | Poco Nuvoloso | 27 | 13 | 42 | 1015 | 10 | N/NE 11.1 | |
| Oggi h: 16:50 | Poco Nuvoloso | 28 | 13 | 39 | 1015 | 10 | N/NE 22.2 | |
| Oggi h: 15:50 | Nuvoloso | 27 | 14 | 44 | 1015 | 10 | E/NE 16.7 | |
| Oggi h: 14:50 | Nuvoloso | 27 | 14 | 44 | 1015 | 10 | E 13 | |
| Oggi h: 13:50 | Nuvoloso | 26 | 13 | 44 | 1016 | 10 | N 7.4 | |
| Oggi h: 12:50 | Nuvoloso | 25 | 13 | 47 | 1016 | 10 | N 9.3 | |
| Oggi h: 11:50 | Nuvoloso | 25 | 14 | 50 | 1017 | 10 | N 5.5 | |
| Oggi h: 10:50 | Nuvoloso | 22 | 14 | 60 | 1017 | 10 | N 1.8 | |
| Oggi h: 09:50 | Nuvoloso | 22 | 15 | 64 | 1017 | 10 | N 3.7 | |
| Oggi h: 08:50 | Nuvoloso | 20 | 14 | 68 | 1017 | 10 | N 0 | |
| Oggi h: 07:50 | Nuvoloso | 18 | 15 | 82 | 1017 | 10 | N 0 | |
| Oggi h: 06:50 | Nuvoloso | 14 | 14 | 100 | 1017 | 10 | N 0 | |
| Oggi h: 05:50 | Nuvoloso | 13 | 13 | 100 | 1016 | 10 | N 5.5 | |
| Oggi h: 04:50 | Nuvoloso | 14 | 14 | 100 | 1016 | 10 | N 0 | |
| Oggi h: 03:50 | Poco Nuvoloso | 15 | 15 | 100 | 1016 | 10 | NO 7.4 | |
| Oggi h: 02:50 | Poco Nuvoloso | 16 | 15 | 93 | 1016 | 10 | O/NO 7.4 | |
| Oggi h: 01:50 | Poco Nuvoloso | 17 | 14 | 82 | 1016 | 10 | O/NO 7.4 | |
| Oggi h: 00:50 | Poco Nuvoloso | 19 | 15 | 77 | 1017 | 10 | N 0 | |
| Ieri h: 23:50 | Poco Nuvoloso | 19 | 14 | 72 | 1016 | 10 | N 11.1 | |
| Ieri h: 22:50 | Poco Nuvoloso | 18 | 14 | 77 | 1016 | 10 | N/NE 13 | |
| Ieri h: 21:50 | Poco Nuvoloso | 19 | 15 | 77 | 1016 | 10 | N/NE 25.9 | |



